Aérodrome :
LOGIN :

S'inscrire | Disclaimer

   EN    FR    IT 

 










Légende :    VFR   VFR Marginal   IFR   IFR Intensif   IFR Très Intensif
Visi : 
Plafond : 
>= 8 km
>= 3000ft
5 à 8 km
1000 à 3000 ft
1500m à 5 km
500 à 1000 ft
800 à 1500m
200 à 500 ft
< 800m
< 200 ft
Symboles :   Orages  Brouillard  Fortes neiges  Fortes précipitations  Vent > 20 kt
SIGMETs :   Divers  Orages  Givrage  Turbulence  Onde Orograph.  Cendres Volcan.






- Altitude de l'aérodrome : 3368 ft


LSGC - Les Eplatures

DERNIER METAR :
  • 161020Z AUTO 24006KT 200V260 CAVOK 12/05 Q1017

METARs EXPIRÉS :
  • 160950Z 22005KT 170V280 CAVOK 11/05 Q1017
  • 160920Z AUTO 22006KT 190V270 CAVOK 10/04 Q1017
  • 160850Z 21005KT 170V250 CAVOK 09/03 Q1018
  • 160820Z 25005KT CAVOK 08/03 Q1018
  • 160750Z 24005KT CAVOK 07/03 Q1018

TAF TAF LSGC
Valide du 16 à 09h jusqu'au 16 à 18h UTC


160825Z 1609/1618 25005KT CAVOK



MET'MAP, la Météo Aéronautique d'un coup d'oeil ! - Copyright ORBIFLY Décembre 2007 - Disclaimer

ORBIFLY MET'MAP TEAM :

Programmation & Développement : Alexandra Zaïnal
Conception & Développement : Baudouin d'Aumeries
Co-Programmation & Développement : Marc-Olivier Méhu
Soutien technique & logistique : Manuel Goepfert

Contact : metmap@orbifly.com




SOURCES & CREDITS :

   NOAA